Time;durP1;ratioP1;P1;durP2;ratioP2;P2;SDS_P1;SDS_P2;PMS_P1;PMS_P2;Temp;Humidity;BMP_temperature;BMP_pressure;BME280_temperature;BME280_humidity;BME280_pressure;Samples;Min_cycle;Max_cycle;Signal;HPM_P1;HPM_P2
2023/02/04 00:00:16;;;;;;;;;;;;;;;20.85;47.24;101747.13;5047503;28;5247;-64
2023/02/04 00:02:42;;;;;;;;;;;;;;;20.86;47.09;101748.59;5044984;28;4626;-67
2023/02/04 00:05:09;;;;;;;;;;;;;;;20.86;46.98;101760.13;5049263;28;4553;-67
2023/02/04 00:07:35;;;;;;;;;;;;;;;20.88;47.04;101771.00;5045086;28;4939;-67
2023/02/04 00:10:01;;;;;;;;;;;;;;;20.89;47.13;101775.38;5041818;28;4635;-67
2023/02/04 00:12:28;;;;;;;;;;;;;;;20.89;47.16;101787.66;5044709;28;4644;-64
2023/02/04 00:14:54;;;;;;;;;;;;;;;20.91;47.21;101796.44;5044652;28;5022;-64
2023/02/04 00:17:21;;;;;;;;;;;;;;;20.90;47.15;101806.44;5051920;28;4623;-64
2023/02/04 00:19:47;;;;;;;;;;;;;;;20.91;47.24;101818.69;5048010;28;5208;-64
2023/02/04 00:22:13;;;;;;;;;;;;;;;20.91;47.00;101818.69;5049458;28;4782;-67
2023/02/04 00:24:41;;;;;;;;;;;;;;;20.89;46.95;101827.22;5045662;28;4803;-67
2023/02/04 00:27:08;;;;;;;;;;;;;;;20.89;47.07;101838.72;5045749;28;4556;-67
2023/02/04 00:29:34;;;;;;;;;;;;;;;20.88;46.93;101843.00;5046338;28;4666;-66
2023/02/04 00:32:01;;;;;;;;;;;;;;;20.86;47.04;101848.63;5048931;28;4473;-67
2023/02/04 00:34:27;;;;;;;;;;;;;;;20.85;47.08;101856.53;5048598;28;4647;-66
2023/02/04 00:36:54;;;;;;;;;;;;;;;20.85;47.14;101865.16;5051790;28;4833;-67
2023/02/04 00:39:20;;;;;;;;;;;;;;;20.85;46.94;101862.28;5043876;28;4760;-67
2023/02/04 00:41:46;;;;;;;;;;;;;;;20.85;46.95;101881.69;5052414;28;4580;-67
2023/02/04 00:44:13;;;;;;;;;;;;;;;20.83;46.92;101876.53;5053477;28;4632;-66
2023/02/04 00:46:42;;;;;;;;;;;;;;;20.83;47.09;101901.72;5054702;28;4475;-67
2023/02/04 00:49:11;;;;;;;;;;;;;;;20.82;46.93;101921.13;5052468;28;4612;-66
2023/02/04 00:51:38;;;;;;;;;;;;;;;20.82;46.85;101943.38;5051282;28;4718;-67
2023/02/04 00:54:05;;;;;;;;;;;;;;;20.79;46.92;101939.63;5055787;28;4570;-67
2023/02/04 00:56:32;;;;;;;;;;;;;;;20.83;47.32;101951.41;5053584;28;4952;-67
2023/02/04 00:58:58;;;;;;;;;;;;;;;20.86;47.26;101960.91;5052883;28;4949;-67
2023/02/04 01:01:24;;;;;;;;;;;;;;;20.90;47.31;101969.81;5053164;28;4833;-67
2023/02/04 01:03:51;;;;;;;;;;;;;;;20.89;47.12;101971.94;5052111;28;4943;-67
2023/02/04 01:06:17;;;;;;;;;;;;;;;20.91;47.06;101985.69;5055439;28;4760;-67
2023/02/04 01:08:43;;;;;;;;;;;;;;;20.91;47.36;101997.97;5050277;28;4810;-64
2023/02/04 01:11:10;;;;;;;;;;;;;;;20.90;47.27;102001.47;5053351;28;4952;-67
2023/02/04 01:13:36;;;;;;;;;;;;;;;20.89;47.29;102014.34;5062927;28;4713;-67
2023/02/04 01:16:02;;;;;;;;;;;;;;;20.89;47.25;102023.75;5051001;28;4682;-67
2023/02/04 01:18:29;;;;;;;;;;;;;;;20.88;47.26;102035.91;5052015;28;4741;-67
2023/02/04 01:20:55;;;;;;;;;;;;;;;20.87;47.09;102043.78;5052214;28;4647;-64
2023/02/04 01:23:22;;;;;;;;;;;;;;;20.87;47.02;102038.03;5051641;28;4727;-67
2023/02/04 01:25:48;;;;;;;;;;;;;;;20.87;47.09;102066.06;5052084;28;4801;-67
2023/02/04 01:28:14;;;;;;;;;;;;;;;20.85;46.99;102075.31;5057115;28;5180;-67
2023/02/04 01:30:41;;;;;;;;;;;;;;;20.84;47.04;102064.44;5050963;28;4722;-64
2023/02/04 01:33:07;;;;;;;;;;;;;;;20.84;47.00;102078.81;5052248;28;4634;-64
2023/02/04 01:35:34;;;;;;;;;;;;;;;20.82;47.26;102075.81;5050045;28;4690;-64
2023/02/04 01:38:00;;;;;;;;;;;;;;;20.82;47.20;102081.56;5050560;28;4730;-65
2023/02/04 01:40:27;;;;;;;;;;;;;;;20.81;47.20;102086.56;5047947;28;4741;-64
2023/02/04 01:42:54;;;;;;;;;;;;;;;20.80;47.12;102102.34;5052928;28;4604;-64
2023/02/04 01:45:22;;;;;;;;;;;;;;;20.80;47.08;102116.75;5052244;28;4797;-64
2023/02/04 01:47:48;;;;;;;;;;;;;;;20.80;47.11;102131.16;5052970;28;4746;-64
2023/02/04 01:50:15;;;;;;;;;;;;;;;20.80;46.99;102148.41;5052355;28;4663;-67
2023/02/04 01:52:41;;;;;;;;;;;;;;;20.81;47.12;102146.28;5031117;28;4678;-67
2023/02/04 01:55:12;;;;;;;;;;;;;;;20.81;47.07;102152.78;5048457;28;4734;-67
2023/02/04 01:57:38;;;;;;;;;;;;;;;20.82;46.99;102162.19;5048389;28;4814;-67
2023/02/04 02:00:05;;;;;;;;;;;;;;;20.83;47.25;102167.31;5051060;28;4648;-67
2023/02/04 02:02:41;;;;;;;;;;;;;;;20.82;47.07;102174.47;5049452;28;4793;-67
2023/02/04 02:05:12;;;;;;;;;;;;;;;20.82;47.09;102185.97;5055468;28;4990;-64
2023/02/04 02:07:38;;;;;;;;;;;;;;;20.82;47.17;102180.22;5055344;28;4620;-67
2023/02/04 02:10:04;;;;;;;;;;;;;;;20.81;46.94;102190.22;5048500;28;4802;-66
2023/02/04 02:12:31;;;;;;;;;;;;;;;20.79;46.92;102198.72;5035662;28;4817;-66
2023/02/04 02:14:57;;;;;;;;;;;;;;;20.80;46.96;102194.47;5050906;28;4833;-66
2023/02/04 02:17:24;;;;;;;;;;;;;;;20.79;47.06;102210.25;5052463;28;4762;-66
2023/02/04 02:19:50;;;;;;;;;;;;;;;20.78;47.04;102211.63;5042954;28;4619;-66
2023/02/04 02:22:20;;;;;;;;;;;;;;;20.77;46.88;102215.84;5010866;28;975548;-66
2023/02/04 02:24:46;;;;;;;;;;;;;;;20.76;46.86;102222.25;5052595;28;4669;-66
2023/02/04 02:27:13;;;;;;;;;;;;;;;20.75;46.86;102233.00;5050025;28;4645;-67
2023/02/04 02:29:39;;;;;;;;;;;;;;;20.77;46.96;102235.25;5050645;28;4653;-66
2023/02/04 02:32:06;;;;;;;;;;;;;;;20.77;46.96;102236.00;5049804;28;4944;-66
2023/02/04 02:34:32;;;;;;;;;;;;;;;20.76;47.02;102239.53;5052273;28;5302;-65
2023/02/04 02:37:00;;;;;;;;;;;;;;;20.78;46.94;102248.31;5032282;28;4845;-66
2023/02/04 02:39:27;;;;;;;;;;;;;;;20.79;47.07;102256.31;5051564;28;4657;-66
2023/02/04 02:41:54;;;;;;;;;;;;;;;20.78;46.97;102260.56;5050503;28;4650;-66
2023/02/04 02:44:20;;;;;;;;;;;;;;;20.80;47.14;102275.09;5041376;28;4726;-66
2023/02/04 02:46:47;;;;;;;;;;;;;;;20.78;47.04;102272.09;5054523;28;4647;-66
2023/02/04 02:49:14;;;;;;;;;;;;;;;20.78;47.04;102283.59;5055125;28;4722;-65
2023/02/04 02:51:41;;;;;;;;;;;;;;;20.78;46.97;102288.59;5056541;28;4826;-65
2023/02/04 02:54:12;;;;;;;;;;;;;;;20.78;46.96;102294.38;5053992;28;4712;-66
2023/02/04 02:56:38;;;;;;;;;;;;;;;20.77;46.91;102293.59;5045378;28;4710;-66
2023/02/04 02:59:12;;;;;;;;;;;;;;;20.75;46.60;102302.09;5051554;28;4866;-66
2023/02/04 03:01:38;;;;;;;;;;;;;;;20.74;46.91;102311.34;5052679;28;4729;-66
2023/02/04 03:24:11;;;;;;;;;;;;;;;20.76;47.08;102378.47;5016231;28;4983;-67
2023/02/04 03:26:38;;;;;;;;;;;;;;;20.75;46.83;102379.81;5021727;28;5268;-66
2023/02/04 03:29:05;;;;;;;;;;;;;;;20.75;47.04;102405.72;5035122;28;4919;-66
2023/02/04 03:31:31;;;;;;;;;;;;;;;20.73;46.97;102399.84;5028407;28;4770;-66
2023/02/04 03:33:58;;;;;;;;;;;;;;;20.75;46.82;102416.50;5027416;28;4856;-65
2023/02/04 03:36:24;;;;;;;;;;;;;;;20.74;46.73;102427.25;5030148;28;4696;-66
2023/02/04 03:38:53;;;;;;;;;;;;;;;20.72;46.78;102432.88;5029363;28;4709;-66
2023/02/04 03:41:20;;;;;;;;;;;;;;;20.70;46.84;102445.00;5028432;28;4824;-65
2023/02/04 03:43:46;;;;;;;;;;;;;;;20.70;46.98;102450.75;5024802;28;4757;-65
2023/02/04 03:46:12;;;;;;;;;;;;;;;20.70;46.70;102461.50;5026910;28;4831;-65
2023/02/04 03:48:39;;;;;;;;;;;;;;;20.71;46.80;102460.91;5027836;28;4763;-65
2023/02/04 03:51:05;;;;;;;;;;;;;;;20.72;46.77;102476.06;5027165;28;4726;-65
2023/02/04 03:53:31;;;;;;;;;;;;;;;20.73;46.78;102477.59;5028497;28;4685;-65
2023/02/04 03:55:58;;;;;;;;;;;;;;;20.75;46.89;102482.72;5030478;28;4830;-65
2023/02/04 03:58:24;;;;;;;;;;;;;;;20.76;46.69;102484.97;5028044;28;4885;-65
2023/02/04 04:00:50;;;;;;;;;;;;;;;20.76;46.75;102490.75;5026535;28;4871;-66
2023/02/04 04:03:17;;;;;;;;;;;;;;;20.77;46.95;102492.25;5026354;28;4701;-66
2023/02/04 04:05:43;;;;;;;;;;;;;;;20.78;46.67;102493.78;5023277;28;5185;-65
2023/02/04 04:08:09;;;;;;;;;;;;;;;20.78;46.73;102499.53;5021838;28;4708;-65
2023/02/04 04:10:36;;;;;;;;;;;;;;;20.80;46.54;102511.19;5026434;28;4633;-65
2023/02/04 04:13:02;;;;;;;;;;;;;;;20.80;46.86;102519.06;5025868;28;4640;-65
2023/02/04 04:15:29;;;;;;;;;;;;;;;20.81;46.67;102521.31;5031000;28;4742;-65
2023/02/04 04:17:55;;;;;;;;;;;;;;;20.81;46.69;102538.59;5028408;28;4776;-65
2023/02/04 04:20:26;;;;;;;;;;;;;;;20.81;46.61;102535.72;5028306;28;4710;-65
2023/02/04 04:22:53;;;;;;;;;;;;;;;20.80;46.47;102542.88;5026094;28;4754;-65
2023/02/04 04:25:19;;;;;;;;;;;;;;;20.80;46.54;102548.63;5037626;28;4638;-65
2023/02/04 04:27:46;;;;;;;;;;;;;;;20.80;46.54;102554.38;5045566;28;4631;-65
2023/02/04 04:30:12;;;;;;;;;;;;;;;20.80;46.62;102565.91;5047051;28;4651;-65
2023/02/04 04:32:41;;;;;;;;;;;;;;;20.80;46.57;102570.88;5048201;28;4848;-65
2023/02/04 04:35:08;;;;;;;;;;;;;;;20.79;46.58;102575.88;5050059;28;5148;-65
2023/02/04 04:37:34;;;;;;;;;;;;;;;20.76;46.50;102582.88;5047036;28;4662;-65
2023/02/04 04:40:01;;;;;;;;;;;;;;;20.78;46.45;102594.53;5049750;28;4738;-65
2023/02/04 04:42:27;;;;;;;;;;;;;;;20.78;46.64;102597.41;5048454;28;4915;-65
2023/02/04 04:44:54;;;;;;;;;;;;;;;20.77;46.42;102610.28;5050417;28;5023;-66
2023/02/04 04:47:20;;;;;;;;;;;;;;;20.77;46.63;102610.28;5051891;28;4635;-65
2023/02/04 04:49:46;;;;;;;;;;;;;;;20.76;46.59;102611.66;5045980;28;4736;-65
2023/02/04 04:52:13;;;;;;;;;;;;;;;20.76;46.42;102608.78;5046373;28;4991;-65
2023/02/04 04:54:39;;;;;;;;;;;;;;;20.75;46.45;102621.66;5052387;28;4670;-65
2023/02/04 04:57:05;;;;;;;;;;;;;;;20.75;46.54;102618.78;5047754;28;4622;-65
2023/02/04 04:59:32;;;;;;;;;;;;;;;20.75;46.44;102629.53;5049305;28;4785;-65
2023/02/04 05:01:58;;;;;;;;;;;;;;;20.76;46.39;102634.69;5050678;28;4917;-65
2023/02/04 05:04:24;;;;;;;;;;;;;;;20.76;46.56;102651.22;5047957;28;4715;-65
2023/02/04 05:06:51;;;;;;;;;;;;;;;20.78;46.58;102657.88;5048313;28;4833;-65
2023/02/04 05:09:17;;;;;;;;;;;;;;;20.78;46.44;102660.75;5048920;28;4733;-65
2023/02/04 05:11:44;;;;;;;;;;;;;;;20.78;46.53;102665.78;5051440;28;4622;-65
2023/02/04 05:14:10;;;;;;;;;;;;;;;20.79;46.47;102673.78;5049083;28;4703;-65
2023/02/04 05:16:36;;;;;;;;;;;;;;;20.81;46.58;102673.19;5050019;28;5025;-65
2023/02/04 05:19:03;;;;;;;;;;;;;;;20.81;46.50;102679.69;5048417;28;4785;-65
2023/02/04 05:21:29;;;;;;;;;;;;;;;20.83;46.61;102684.84;5055135;28;4712;-65
2023/02/04 05:23:55;;;;;;;;;;;;;;;20.83;46.52;102688.47;5051735;28;4665;-65
2023/02/04 05:26:22;;;;;;;;;;;;;;;20.82;46.61;102686.97;5053712;28;4938;-65
2023/02/04 05:28:56;;;;;;;;;;;;;;;20.82;46.37;102698.50;5047141;28;4683;-65
2023/02/04 05:31:22;;;;;;;;;;;;;;;20.81;46.54;102696.97;5049590;28;4612;-65
2023/02/04 05:33:49;;;;;;;;;;;;;;;20.80;46.37;102707.00;5052501;28;4725;-65
2023/02/04 05:36:16;;;;;;;;;;;;;;;20.80;46.43;102715.63;5049597;28;4864;-65
2023/02/04 05:38:42;;;;;;;;;;;;;;;20.80;46.46;102718.50;5051399;28;4880;-65
2023/02/04 05:41:09;;;;;;;;;;;;;;;20.79;46.56;102725.63;5048470;28;4743;-65
2023/02/04 05:43:35;;;;;;;;;;;;;;;20.80;46.36;102730.03;5054170;28;4740;-65
2023/02/04 05:46:01;;;;;;;;;;;;;;;20.79;46.39;102734.25;5052868;28;4707;-65
2023/02/04 05:48:28;;;;;;;;;;;;;;;20.79;46.43;102750.78;5048463;28;4795;-65
2023/02/04 05:50:54;;;;;;;;;;;;;;;20.79;46.40;102754.41;5052769;28;4856;-65
2023/02/04 05:53:21;;;;;;;;;;;;;;;20.78;46.52;102755.78;5051603;28;4718;-65
2023/02/04 05:55:47;;;;;;;;;;;;;;;20.78;46.23;102760.78;5049850;28;4741;-65
2023/02/04 05:58:13;;;;;;;;;;;;;;;20.76;46.35;102764.25;5045310;28;4935;-65
2023/02/04 06:00:40;;;;;;;;;;;;;;;20.76;46.43;102770.03;5047481;28;4747;-65
2023/02/04 06:03:06;;;;;;;;;;;;;;;20.76;46.25;102778.66;5052054;28;4634;-65
2023/02/04 06:05:32;;;;;;;;;;;;;;;20.76;46.25;102787.31;5053840;28;4721;-65
2023/02/04 06:07:59;;;;;;;;;;;;;;;20.78;46.23;102793.22;5051837;28;4697;-65
2023/02/04 06:10:25;;;;;;;;;;;;;;;20.78;46.37;102807.59;5053303;28;4646;-65
2023/02/04 06:12:51;;;;;;;;;;;;;;;20.78;46.26;102807.59;5052585;28;4642;-65
2023/02/04 06:15:19;;;;;;;;;;;;;;;20.79;46.35;102814.88;5053518;28;4845;-64
2023/02/04 06:17:45;;;;;;;;;;;;;;;20.80;46.47;102819.28;5044799;28;4769;-65
2023/02/04 06:20:12;;;;;;;;;;;;;;;20.80;46.43;102816.41;5053582;28;4575;-64
2023/02/04 06:22:38;;;;;;;;;;;;;;;20.81;46.16;102817.16;5050494;28;4936;-66
2023/02/04 06:25:05;;;;;;;;;;;;;;;20.81;46.38;102829.44;5050294;28;4713;-65
2023/02/04 06:27:31;;;;;;;;;;;;;;;20.82;46.34;102828.09;5051250;28;4675;-64
2023/02/04 06:29:57;;;;;;;;;;;;;;;20.83;46.30;102829.59;5050834;28;4687;-65
2023/02/04 06:32:24;;;;;;;;;;;;;;;20.83;46.34;102841.09;5055524;28;4812;-65
2023/02/04 06:34:50;;;;;;;;;;;;;;;20.81;46.48;102835.19;5049744;28;4837;-64
2023/02/04 06:37:16;;;;;;;;;;;;;;;20.81;46.40;102835.19;5048045;28;4654;-64
2023/02/04 06:39:43;;;;;;;;;;;;;;;20.81;46.29;102835.19;5053459;28;4603;-65
2023/02/04 06:42:09;;;;;;;;;;;;;;;20.80;46.20;102845.19;5042966;28;4713;-65
2023/02/04 06:44:36;;;;;;;;;;;;;;;20.80;46.24;102845.19;5041142;28;4844;-65
2023/02/04 06:47:02;;;;;;;;;;;;;;;20.80;46.31;102833.69;5049439;28;4748;-64
2023/02/04 06:49:28;;;;;;;;;;;;;;;20.80;46.24;102833.69;5050917;28;4814;-65
2023/02/04 06:51:55;;;;;;;;;;;;;;;20.80;46.18;102832.91;5050945;28;5146;-64
2023/02/04 06:54:21;;;;;;;;;;;;;;;20.79;46.10;102831.41;5048114;28;4956;-65
2023/02/04 06:56:47;;;;;;;;;;;;;;;20.78;46.20;102842.16;5050565;28;4747;-64
2023/02/04 06:59:14;;;;;;;;;;;;;;;20.77;45.98;102843.50;5049308;28;4727;-65
2023/02/04 07:01:40;;;;;;;;;;;;;;;20.77;46.03;102851.41;5046268;28;4802;-64
2023/02/04 07:04:06;;;;;;;;;;;;;;;20.77;46.22;102855.03;5048942;28;4834;-66
2023/02/04 07:06:33;;;;;;;;;;;;;;;20.76;46.20;102862.16;5045826;28;4800;-65
2023/02/04 07:08:59;;;;;;;;;;;;;;;20.76;46.29;102872.94;5051931;28;4592;-65
2023/02/04 07:11:25;;;;;;;;;;;;;;;20.77;46.24;102878.06;5049435;28;4635;-67
2023/02/04 07:13:52;;;;;;;;;;;;;;;20.77;45.97;102875.19;5051045;28;4741;-67
2023/02/04 07:16:18;;;;;;;;;;;;;;;20.79;45.97;102877.47;5046587;28;4519;-67
2023/02/04 07:18:44;;;;;;;;;;;;;;;20.78;46.04;102870.97;5052104;28;4716;-67
2023/02/04 07:21:11;;;;;;;;;;;;;;;20.79;46.15;102881.09;5046864;28;4916;-67
2023/02/04 07:23:37;;;;;;;;;;;;;;;20.80;46.10;102897.03;5049644;28;4665;-66
2023/02/04 07:26:04;;;;;;;;;;;;;;;20.35;44.00;102899.28;5053723;28;5328;-66
2023/02/04 07:28:30;;;;;;;;;;;;;;;20.26;44.08;102902.88;5047460;28;5158;-72
2023/02/04 07:30:56;;;;;;;;;;;;;;;20.57;43.81;102896.66;5051753;28;4939;-72
2023/02/04 07:33:23;;;;;;;;;;;;;;;20.78;44.62;102908.41;5053074;28;4985;-71
2023/02/04 07:35:49;;;;;;;;;;;;;;;20.83;44.60;102910.22;5050876;28;4935;-71
2023/02/04 07:38:15;;;;;;;;;;;;;;;20.82;44.46;102913.69;5050519;28;4887;-71
2023/02/04 07:40:45;;;;;;;;;;;;;;;20.82;44.29;102917.34;5048775;28;5032;-71
2023/02/04 07:43:11;;;;;;;;;;;;;;;20.80;44.42;102913.53;5050229;28;4865;-71
2023/02/04 07:45:38;;;;;;;;;;;;;;;20.79;44.74;102923.53;5050912;28;4956;-70
2023/02/04 07:48:04;;;;;;;;;;;;;;;20.78;44.80;102927.78;5048067;28;4882;-71
2023/02/04 07:50:31;;;;;;;;;;;;;;;20.79;44.93;102929.31;5047877;28;5060;-73
2023/02/04 07:52:57;;;;;;;;;;;;;;;20.81;45.15;102933.09;5048553;28;4922;-70
2023/02/04 07:55:24;;;;;;;;;;;;;;;20.81;45.00;102933.09;5048579;28;4958;-70
2023/02/04 07:57:50;;;;;;;;;;;;;;;20.82;45.18;102948.25;5050141;28;4876;-71
2023/02/04 08:00:17;;;;;;;;;;;;;;;20.79;46.00;102958.84;5048436;28;5093;-71
2023/02/04 08:02:43;;;;;;;;;;;;;;;20.81;45.75;102964.78;5048131;28;4944;-71
2023/02/04 08:05:09;;;;;;;;;;;;;;;20.84;45.74;102969.31;5047630;28;4797;-71
2023/02/04 08:07:36;;;;;;;;;;;;;;;20.86;45.48;102975.25;5045661;28;4910;-70
2023/02/04 08:10:03;;;;;;;;;;;;;;;20.51;44.82;102975.38;5049918;28;4959;-70
2023/02/04 08:12:29;;;;;;;;;;;;;;;16.54;40.03;102992.38;5052566;28;4968;-75
2023/02/04 08:14:56;;;;;;;;;;;;;;;14.50;40.33;102990.66;5053247;28;4776;-74
2023/02/04 08:17:22;;;;;;;;;;;;;;;13.88;40.26;103000.56;5051419;28;4785;-68
2023/02/04 08:19:48;;;;;;;;;;;;;;;14.60;40.33;103006.00;5051465;28;4805;-67
2023/02/04 08:22:15;;;;;;;;;;;;;;;16.10;38.74;103018.16;5050305;28;4779;-67
2023/02/04 08:24:41;;;;;;;;;;;;;;;16.81;37.83;103007.13;5052372;28;4971;-65
2023/02/04 08:27:07;;;;;;;;;;;;;;;17.12;38.69;103013.63;5054023;28;4729;-68
2023/02/04 08:29:34;;;;;;;;;;;;;;;18.00;38.78;103016.00;5053056;28;2917;-63
2023/02/04 08:32:00;;;;;;;;;;;;;;;18.67;38.38;103016.78;5049586;28;3120;-64
2023/02/04 08:34:26;;;;;;;;;;;;;;;19.12;39.42;103023.56;5046018;28;2964;-62
2023/02/04 08:36:53;;;;;;;;;;;;;;;19.35;40.50;103015.50;5048602;28;2747;-61
2023/02/04 08:39:19;;;;;;;;;;;;;;;19.52;40.69;103023.41;5054648;28;2746;-63
2023/02/04 08:41:47;;;;;;;;;;;;;;;19.63;41.22;103014.28;5050868;28;2906;-63
2023/02/04 08:44:14;;;;;;;;;;;;;;;19.73;40.94;103025.13;5053751;28;2833;-63
2023/02/04 08:46:40;;;;;;;;;;;;;;;19.79;41.18;103022.75;5052667;28;2839;-61
2023/02/04 08:49:07;;;;;;;;;;;;;;;19.83;41.30;103011.56;5054775;28;2928;-62
2023/02/04 08:51:33;;;;;;;;;;;;;;;19.94;41.34;103021.81;5057765;28;2731;-61
2023/02/04 08:53:59;;;;;;;;;;;;;;;19.22;39.79;103021.56;5059014;28;3024;-62
2023/02/04 08:56:26;;;;;;;;;;;;;;;19.24;40.78;103028.25;5053560;28;2925;-61
2023/02/04 08:58:52;;;;;;;;;;;;;;;19.58;42.03;103031.75;5047711;28;2947;-61
2023/02/04 09:01:18;;;;;;;;;;;;;;;19.78;41.82;103032.72;5054456;28;2983;-61
2023/02/04 09:03:45;;;;;;;;;;;;;;;19.86;42.11;103033.41;5047959;28;2884;-61
2023/02/04 09:06:11;;;;;;;;;;;;;;;19.91;42.50;103035.28;5052063;28;3116;-59
2023/02/04 09:08:37;;;;;;;;;;;;;;;19.85;42.13;103037.63;5052108;28;2926;-60
2023/02/04 09:11:04;;;;;;;;;;;;;;;19.91;42.11;103052.53;5055734;28;2711;-60
2023/02/04 09:13:31;;;;;;;;;;;;;;;19.96;42.86;103048.63;5053519;28;2902;-61
2023/02/04 09:15:57;;;;;;;;;;;;;;;20.01;43.32;103053.34;5053508;28;2845;-61
2023/02/04 09:18:24;;;;;;;;;;;;;;;20.04;43.31;103066.56;5054665;28;2665;-61
2023/02/04 09:20:51;;;;;;;;;;;;;;;20.08;43.33;103066.13;5056309;28;3030;-61
2023/02/04 09:23:17;;;;;;;;;;;;;;;20.11;43.57;103058.41;5054220;28;2844;-60
2023/02/04 09:25:44;;;;;;;;;;;;;;;20.12;43.58;103065.72;5055705;28;2817;-61
2023/02/04 09:28:11;;;;;;;;;;;;;;;20.14;44.13;103075.25;5057627;28;3024;-61
2023/02/04 09:30:38;;;;;;;;;;;;;;;20.15;43.96;103076.03;5055523;28;2983;-60
2023/02/04 09:33:04;;;;;;;;;;;;;;;19.84;42.34;103076.38;5051942;28;2950;-60
2023/02/04 09:35:30;;;;;;;;;;;;;;;19.73;43.41;103089.13;5053946;28;2851;-61
2023/02/04 09:37:57;;;;;;;;;;;;;;;19.96;43.75;103088.88;5054960;28;2717;-62
2023/02/04 09:40:23;;;;;;;;;;;;;;;20.12;43.94;103100.97;5052516;28;3021;-68
2023/02/04 09:42:49;;;;;;;;;;;;;;;20.00;43.73;103106.50;5049573;28;3070;-62
2023/02/04 09:45:16;;;;;;;;;;;;;;;20.22;43.51;103103.94;5045518;28;2930;-64
2023/02/04 09:47:43;;;;;;;;;;;;;;;20.36;43.20;103101.47;5038866;28;3048;-63
2023/02/04 09:50:13;;;;;;;;;;;;;;;20.35;43.52;103106.47;5052271;28;2667;-59
2023/02/04 09:52:39;;;;;;;;;;;;;;;20.39;44.06;103109.69;5048563;28;2904;-64
2023/02/04 09:55:11;;;;;;;;;;;;;;;20.34;44.06;103104.94;5040962;28;2921;-64
2023/02/04 09:57:40;;;;;;;;;;;;;;;20.44;44.46;103107.91;5033821;28;3550;-65
2023/02/04 10:00:13;;;;;;;;;;;;;;;20.41;44.92;103109.84;5038345;28;2974;-65
2023/02/04 10:02:40;;;;;;;;;;;;;;;20.41;45.62;103109.84;5038004;28;2995;-64
2023/02/04 10:05:08;;;;;;;;;;;;;;;20.42;45.60;103105.59;5031806;28;3038;-63
2023/02/04 10:07:34;;;;;;;;;;;;;;;20.40;46.41;103102.56;5035425;28;2941;-63
2023/02/04 10:10:01;;;;;;;;;;;;;;;20.37;46.23;103098.00;5037378;28;3092;-66
2023/02/04 10:12:28;;;;;;;;;;;;;;;19.46;40.93;103109.09;5034466;28;3293;-62
2023/02/04 10:14:54;;;;;;;;;;;;;;;19.62;43.58;103107.59;5042232;28;3154;-73
2023/02/04 10:17:21;;;;;;;;;;;;;;;20.00;43.05;103108.59;5040824;28;2911;-69
2023/02/04 10:19:47;;;;;;;;;;;;;;;20.18;43.79;103109.34;5037153;28;3488;-67
2023/02/04 10:22:17;;;;;;;;;;;;;;;20.26;44.23;103116.53;5048660;28;2828;-69
2023/02/04 10:24:43;;;;;;;;;;;;;;;20.32;43.86;103122.06;5035056;28;3557;-68
2023/02/04 10:27:10;;;;;;;;;;;;;;;20.34;43.76;103115.69;5033086;28;3166;-67
2023/02/04 10:29:37;;;;;;;;;;;;;;;20.37;43.97;103126.78;5033885;28;3110;-68
2023/02/04 10:32:03;;;;;;;;;;;;;;;20.40;44.10;103119.81;5034103;28;3038;-66
2023/02/04 10:34:33;;;;;;;;;;;;;;;20.40;44.17;103125.59;5035463;28;3244;-72
2023/02/04 10:40:26;;;;;;;;;;;;;;;20.36;44.20;103131.00;5039422;28;2871;-71
2023/02/04 10:42:52;;;;;;;;;;;;;;;20.36;44.19;103131.00;5038628;28;2949;-71
2023/02/04 10:45:26;;;;;;;;;;;;;;;20.38;44.21;103128.28;5040554;28;2901;-70
2023/02/04 10:47:53;;;;;;;;;;;;;;;20.40;43.97;103125.59;5035915;28;3008;-70
2023/02/04 10:50:20;;;;;;;;;;;;;;;20.40;44.27;103122.69;5043660;28;3608;-71
2023/02/04 10:52:48;;;;;;;;;;;;;;;20.41;44.37;103127.13;5037670;28;2878;-72
2023/02/04 10:55:18;;;;;;;;;;;;;;;20.43;44.51;103117.88;5043414;28;2949;-72
2023/02/04 10:57:45;;;;;;;;;;;;;;;20.45;44.18;103126.69;5034070;28;2990;-71
2023/02/04 11:00:19;;;;;;;;;;;;;;;20.45;44.28;103133.19;5042307;28;3111;-71
2023/02/04 11:02:48;;;;;;;;;;;;;;;20.45;44.33;103127.44;5036882;28;2874;-70
2023/02/04 11:05:15;;;;;;;;;;;;;;;20.47;44.61;103132.59;5054846;28;2978;-72
2023/02/04 11:07:42;;;;;;;;;;;;;;;20.46;44.54;103134.72;5034830;28;3495;-72
2023/02/04 11:10:11;;;;;;;;;;;;;;;20.48;44.33;103137.03;5039043;28;3469;-73
2023/02/04 11:12:42;;;;;;;;;;;;;;;20.46;44.32;103140.47;5034329;28;3512;-72
2023/02/04 11:15:27;;;;;;;;;;;;;;;20.47;44.33;103142.00;5044490;28;3065;-71
2023/02/04 11:18:03;;;;;;;;;;;;;;;20.46;44.62;103146.25;5041250;28;3333;-71
2023/02/04 11:20:30;;;;;;;;;;;;;;;20.46;44.49;103152.00;5045575;28;3004;-72
2023/02/04 11:22:57;;;;;;;;;;;;;;;20.47;44.46;103147.75;5052292;28;2904;-72
2023/02/04 11:25:30;;;;;;;;;;;;;;;20.50;44.46;103148.66;5035604;28;3426;-70
2023/02/04 11:27:56;;;;;;;;;;;;;;;20.50;44.51;103149.47;5039704;28;3011;-71
2023/02/04 11:30:23;;;;;;;;;;;;;;;20.50;44.51;103152.34;5036653;28;2853;-70
2023/02/04 11:33:16;;;;;;;;;;;;;;;20.52;44.41;103148.84;5038797;28;2909;-71
2023/02/04 11:35:42;;;;;;;;;;;;;;;20.52;44.64;103154.59;5033243;28;3145;-71
2023/02/04 11:38:22;;;;;;;;;;;;;;;20.54;44.45;103162.66;5047406;28;2884;-72
2023/02/04 11:40:53;;;;;;;;;;;;;;;20.56;44.53;103159.94;5039486;28;2857;-71
2023/02/04 11:43:20;;;;;;;;;;;;;;;20.55;44.51;103164.94;5044583;28;2776;-71
2023/02/04 11:45:47;;;;;;;;;;;;;;;20.55;44.70;103158.41;5031084;28;3152;-72
2023/02/04 11:48:17;;;;;;;;;;;;;;;20.55;44.66;103158.41;5050445;28;3214;-72
2023/02/04 11:50:53;;;;;;;;;;;;;;;20.55;44.93;103164.16;5050569;28;3082;-72
2023/02/04 11:53:20;;;;;;;;;;;;;;;20.56;44.61;103171.44;5054441;28;2772;-72
2023/02/04 11:55:46;;;;;;;;;;;;;;;20.55;44.93;103161.28;5047170;28;2766;-71
2023/02/04 11:58:13;;;;;;;;;;;;;;;20.53;44.98;103169.78;5052338;28;3081;-72
2023/02/04 12:00:41;;;;;;;;;;;;;;;20.55;45.02;103170.69;5049188;28;2906;-72
2023/02/04 12:03:28;;;;;;;;;;;;;;;20.56;44.69;103172.25;5052708;28;2781;-72
2023/02/04 12:05:55;;;;;;;;;;;;;;;20.59;44.73;103176.03;5051646;28;3239;-71
2023/02/04 12:08:21;;;;;;;;;;;;;;;20.59;44.78;103176.81;5049294;28;2660;-72
2023/02/04 12:11:01;;;;;;;;;;;;;;;20.60;44.79;103180.47;5053698;28;2801;-73
2023/02/04 12:13:27;;;;;;;;;;;;;;;20.61;44.87;103170.44;5048756;28;2974;-71
2023/02/04 12:15:59;;;;;;;;;;;;;;;20.59;44.88;103176.03;5047859;28;2825;-72
2023/02/04 12:18:29;;;;;;;;;;;;;;;20.60;44.95;103172.56;5044612;28;2801;-72
2023/02/04 12:20:55;;;;;;;;;;;;;;;20.61;44.73;103173.34;5048460;28;2724;-72
2023/02/04 12:23:22;;;;;;;;;;;;;;;20.58;44.97;103166.66;5054948;28;2657;-72
2023/02/04 12:25:48;;;;;;;;;;;;;;;20.60;44.88;103161.06;5057382;28;2825;-72
2023/02/04 12:28:14;;;;;;;;;;;;;;;20.60;45.04;103171.81;5054073;28;2941;-71
2023/02/04 12:30:41;;;;;;;;;;;;;;;20.60;45.11;103169.69;5053239;28;2602;-71
2023/02/04 12:33:07;;;;;;;;;;;;;;;20.61;45.22;103184.84;5055007;28;2897;-71
2023/02/04 12:35:33;;;;;;;;;;;;;;;20.61;45.06;103184.84;5055818;28;2986;-71
2023/02/04 12:38:00;;;;;;;;;;;;;;;20.62;44.97;103181.38;5060136;28;2625;-71
2023/02/04 12:40:26;;;;;;;;;;;;;;;20.63;45.05;103185.78;5057779;28;2668;-71
2023/02/04 12:42:52;;;;;;;;;;;;;;;20.65;44.99;103193.81;5052560;28;2825;-69
2023/02/04 12:45:19;;;;;;;;;;;;;;;20.66;44.81;103189.56;5058496;28;2689;-68
2023/02/04 12:47:45;;;;;;;;;;;;;;;20.65;44.92;103193.81;5053866;28;2767;-69
2023/02/04 12:50:12;;;;;;;;;;;;;;;20.65;45.14;103191.69;5056703;28;2973;-69
2023/02/04 12:52:39;;;;;;;;;;;;;;;20.65;45.07;103191.69;5058168;28;2681;-68
2023/02/04 12:55:05;;;;;;;;;;;;;;;20.65;45.00;103185.19;5056705;28;1582;-68
2023/02/04 12:57:32;;;;;;;;;;;;;;;20.65;45.09;103196.72;5057010;28;2710;-68
2023/02/04 13:00:00;;;;;;;;;;;;;;;20.63;45.04;103205.94;5053801;28;2843;-68
2023/02/04 13:02:26;;;;;;;;;;;;;;;20.63;45.18;103210.94;5055742;28;2818;-69
2023/02/04 13:04:53;;;;;;;;;;;;;;;20.63;45.03;103208.06;5061579;28;1685;-69
2023/02/04 13:07:20;;;;;;;;;;;;;;;20.63;44.93;103205.94;5059639;28;2677;-69
2023/02/04 13:09:47;;;;;;;;;;;;;;;20.64;45.19;103203.84;5053418;28;2727;-69